createdAt,value
2022-12-15T00:02:25.027Z,92504.69
2022-12-15T00:05:10.237Z,92543.41
2022-12-15T00:07:55.658Z,92783.88
2022-12-15T00:10:40.801Z,92500.63
2022-12-15T00:13:31.695Z,92502.66
2022-12-15T00:16:17.251Z,92506.72
2022-12-15T00:19:02.342Z,92514.88
2022-12-15T00:21:47.761Z,92429.28
2022-12-15T00:24:33.030Z,92490.44
2022-12-15T00:27:18.373Z,92508.75
2022-12-15T00:30:05.129Z,92537.28
2022-12-15T00:32:50.316Z,92512.84
2022-12-15T00:35:35.681Z,92463.94
2022-12-15T00:38:26.081Z,92496.53
2022-12-15T00:40:59.086Z,92567.84
2022-12-15T00:43:27.237Z,92527.09
2022-12-15T00:46:54.021Z,92435.41
2022-12-15T00:49:40.946Z,92510.81
2022-12-15T00:52:26.381Z,92508.75
2022-12-15T00:55:11.662Z,92488.38
2022-12-15T00:57:57.552Z,92510.81
2022-12-15T01:00:43.362Z,92496.53
2022-12-15T01:03:30.846Z,92521.00
2022-12-15T01:06:17.916Z,92484.31
2022-12-15T01:09:03.181Z,92427.25
2022-12-15T01:11:48.597Z,92521.00
2022-12-15T01:14:33.927Z,92463.94
2022-12-15T01:17:19.147Z,92502.66
2022-12-15T01:20:04.568Z,92449.69
2022-12-15T01:22:33.561Z,92490.44
2022-12-15T01:25:01.163Z,92498.56
2022-12-15T01:27:28.781Z,92514.88
2022-12-15T01:29:56.540Z,92525.06
2022-12-15T01:32:24.133Z,92419.09
2022-12-15T01:34:51.952Z,92486.34
2022-12-15T01:37:19.658Z,92486.34
2022-12-15T01:40:06.476Z,92474.13
2022-12-15T01:42:34.079Z,92496.53
2022-12-15T01:45:34.744Z,92492.47
2022-12-15T01:48:05.955Z,92521.00
2022-12-15T01:50:38.450Z,92429.28
2022-12-15T01:53:06.253Z,92518.94
2022-12-15T01:55:35.519Z,92521.00
2022-12-15T01:58:06.759Z,92549.53
2022-12-15T02:00:35.404Z,92461.91
2022-12-15T02:03:05.289Z,92498.56
2022-12-15T02:05:35.192Z,92486.34
2022-12-15T02:08:05.018Z,92539.34
2022-12-15T02:10:51.112Z,92443.56
2022-12-15T02:13:28.715Z,92480.25
2022-12-15T02:16:03.217Z,92498.56
2022-12-15T02:18:37.022Z,92439.47
2022-12-15T02:21:11.062Z,92535.25
2022-12-15T02:24:20.742Z,92478.19
2022-12-15T02:27:35.348Z,92514.88
2022-12-15T02:30:28.292Z,92514.88
2022-12-15T02:33:05.304Z,92470.06
2022-12-15T02:35:41.987Z,92539.34
2022-12-15T02:38:09.853Z,92472.09
2022-12-15T02:40:37.685Z,92523.03
2022-12-15T02:43:07.735Z,92404.84
2022-12-15T02:45:47.169Z,92476.16
2022-12-15T02:48:31.521Z,92531.19
2022-12-15T02:51:12.661Z,92506.72
2022-12-15T02:54:00.186Z,92498.56
2022-12-15T02:56:37.297Z,92521.00
2022-12-15T02:59:11.918Z,92408.91
2022-12-15T03:01:47.725Z,92514.88
2022-12-15T03:04:18.352Z,92498.56
2022-12-15T03:06:48.458Z,92537.28
2022-12-15T03:09:18.342Z,92498.56
2022-12-15T03:11:45.968Z,92488.38
2022-12-15T03:14:13.552Z,92521.00
2022-12-15T03:16:42.640Z,92529.16
2022-12-15T03:19:10.345Z,92476.16
2022-12-15T03:21:38.015Z,92506.72
2022-12-15T03:24:05.919Z,92478.19
2022-12-15T03:26:33.622Z,92523.03
2022-12-15T03:29:01.370Z,92398.72
2022-12-15T03:31:29.102Z,92504.69
2022-12-15T03:33:58.155Z,92502.66
2022-12-15T03:36:25.759Z,92474.13
2022-12-15T03:38:53.518Z,92502.66
2022-12-15T03:41:21.092Z,92463.94
2022-12-15T03:43:49.750Z,92463.94
2022-12-15T03:46:18.101Z,92470.06
2022-12-15T03:48:45.795Z,92490.44
2022-12-15T03:51:14.703Z,92478.19
2022-12-15T03:53:42.307Z,92514.88
2022-12-15T03:56:09.910Z,92490.44
2022-12-15T03:58:37.645Z,92453.75
2022-12-15T04:01:12.099Z,92508.75
2022-12-15T04:03:39.825Z,92512.84
2022-12-15T04:06:08.003Z,92498.56
2022-12-15T04:08:36.908Z,92496.53
2022-12-15T04:11:04.536Z,92453.75
2022-12-15T04:13:32.532Z,92465.97
2022-12-15T04:16:02.860Z,92506.72
2022-12-15T04:18:30.823Z,92508.75
2022-12-15T04:20:57.545Z,92502.66
2022-12-15T04:23:25.500Z,92423.19
2022-12-15T04:26:12.265Z,92512.84
2022-12-15T04:28:57.690Z,92482.28
2022-12-15T04:31:46.083Z,92494.50
2022-12-15T04:34:33.855Z,92394.66
2022-12-15T04:37:19.039Z,92510.81
2022-12-15T04:40:07.379Z,92508.75
2022-12-15T04:42:56.026Z,92516.91
2022-12-15T04:45:43.782Z,92415.03
2022-12-15T04:48:29.535Z,92506.72
2022-12-15T04:51:14.863Z,92500.63
2022-12-15T04:54:01.631Z,92521.00
2022-12-15T04:56:47.008Z,92500.63
2022-12-15T04:59:36.322Z,92516.91
2022-12-15T05:02:21.677Z,92457.81
2022-12-15T05:05:08.235Z,92518.94
2022-12-15T05:07:53.551Z,92504.69
2022-12-15T05:10:38.707Z,92508.75
2022-12-15T05:13:24.764Z,92504.69
2022-12-15T05:16:11.802Z,92531.19
2022-12-15T05:18:56.908Z,92474.13
2022-12-15T05:21:42.259Z,92470.06
2022-12-15T05:24:27.768Z,92508.75
2022-12-15T05:27:13.002Z,92496.53
2022-12-15T05:29:58.270Z,92488.38
2022-12-15T05:32:27.199Z,92502.66
2022-12-15T05:34:54.976Z,92459.88
2022-12-15T05:37:22.591Z,92531.19
2022-12-15T05:39:50.151Z,92453.75
2022-12-15T05:42:17.807Z,92518.94
2022-12-15T05:44:45.410Z,92535.25
2022-12-15T05:47:13.072Z,92543.41
2022-12-15T05:49:42.382Z,92518.94
2022-12-15T05:52:09.983Z,92525.06
2022-12-15T05:54:37.668Z,92518.94
2022-12-15T05:57:05.367Z,92510.81
2022-12-15T05:59:32.986Z,92529.16
2022-12-15T06:02:00.732Z,92490.44
2022-12-15T06:04:28.609Z,92439.47
2022-12-15T06:06:57.628Z,92514.88
2022-12-15T06:09:25.218Z,92472.09
2022-12-15T06:11:52.804Z,92531.19
2022-12-15T06:14:20.412Z,92482.28
2022-12-15T06:16:50.810Z,92547.47
2022-12-15T06:19:19.320Z,92508.75
2022-12-15T06:21:46.940Z,92492.47
2022-12-15T06:24:15.951Z,92476.16
2022-12-15T06:26:43.540Z,92492.47
2022-12-15T06:29:13.334Z,92553.59
2022-12-15T06:31:41.731Z,92521.00
2022-12-15T06:34:12.478Z,92510.81
2022-12-15T06:36:40.358Z,92523.03
2022-12-15T06:39:10.055Z,92523.03
2022-12-15T06:41:39.632Z,92504.69
2022-12-15T06:44:07.507Z,92506.72
2022-12-15T06:46:35.556Z,92474.13
2022-12-15T06:49:03.603Z,92449.69
2022-12-15T06:51:32.171Z,92506.72
2022-12-15T06:54:00.199Z,92531.19
2022-12-15T06:56:33.657Z,92457.81
2022-12-15T06:59:04.491Z,92525.06
2022-12-15T07:01:33.186Z,92549.53
2022-12-15T07:04:02.559Z,92472.09
2022-12-15T07:06:36.324Z,92441.53
2022-12-15T07:09:05.179Z,92525.06
2022-12-15T07:11:32.976Z,92521.00
2022-12-15T07:14:00.589Z,92518.94
2022-12-15T07:16:29.763Z,92518.94
2022-12-15T07:18:57.468Z,92510.81
2022-12-15T07:21:25.165Z,92508.75
2022-12-15T07:23:55.363Z,92470.06
2022-12-15T07:26:24.333Z,92425.22
2022-12-15T07:28:52.860Z,92512.84
2022-12-15T07:31:20.632Z,92502.66
2022-12-15T07:33:51.837Z,92502.66
2022-12-15T07:36:20.168Z,92527.09
2022-12-15T07:38:51.185Z,92494.50
2022-12-15T07:41:20.584Z,92486.34
2022-12-15T07:43:48.943Z,92498.56
2022-12-15T07:46:16.679Z,92514.88
2022-12-15T07:48:44.565Z,92506.72
2022-12-15T07:51:21.217Z,92425.22
2022-12-15T07:53:51.288Z,92510.81
2022-12-15T07:56:20.377Z,92506.72
2022-12-15T07:58:48.579Z,92510.81
2022-12-15T08:01:17.176Z,92472.09
2022-12-15T08:03:45.309Z,92451.72
2022-12-15T08:06:15.042Z,92437.44
2022-12-15T08:08:45.226Z,92502.66
2022-12-15T08:11:20.741Z,92516.91
2022-12-15T08:14:06.917Z,92494.50
2022-12-15T08:16:36.594Z,92504.69
2022-12-15T08:19:05.409Z,92518.94
2022-12-15T08:21:33.513Z,92437.44
2022-12-15T08:24:02.768Z,92510.81
2022-12-15T08:26:31.503Z,92480.25
2022-12-15T08:29:32.017Z,92498.56
2022-12-15T08:31:52.013Z,92423.19
2022-12-15T08:34:19.867Z,92541.38
2022-12-15T08:36:47.619Z,92486.34
2022-12-15T08:39:16.750Z,92449.69
2022-12-15T08:41:44.754Z,92470.06
2022-12-15T08:44:12.513Z,92533.22
2022-12-15T08:46:40.176Z,92470.06
2022-12-15T08:49:08.662Z,92494.50
2022-12-15T08:51:36.449Z,92512.84
2022-12-15T08:54:04.336Z,92545.44
2022-12-15T08:56:33.356Z,92482.28
2022-12-15T08:59:02.539Z,92488.38
2022-12-15T09:01:33.498Z,92508.75
2022-12-15T09:04:02.207Z,92500.63
2022-12-15T09:06:32.811Z,92362.06
2022-12-15T09:09:02.080Z,92488.38
2022-12-15T09:11:31.551Z,92472.09
2022-12-15T09:14:00.649Z,92472.09
2022-12-15T09:16:28.930Z,92512.84
2022-12-15T09:18:59.090Z,92476.16
2022-12-15T09:21:28.661Z,92457.81
2022-12-15T09:24:00.631Z,92398.72
2022-12-15T09:26:30.493Z,92408.91
2022-12-15T09:28:58.853Z,92364.09
2022-12-15T09:31:29.422Z,92425.22
2022-12-15T09:33:59.141Z,92421.16
2022-12-15T09:36:28.231Z,92396.69
2022-12-15T09:38:55.997Z,92445.59
2022-12-15T09:41:27.144Z,92435.41
2022-12-15T09:43:58.825Z,92396.69
2022-12-15T09:46:49.970Z,92437.44
2022-12-15T09:49:29.042Z,92396.69
2022-12-15T09:52:05.913Z,92400.78
2022-12-15T09:54:38.250Z,92351.88
2022-12-15T09:57:12.892Z,92406.88
2022-12-15T09:59:51.681Z,92368.16
2022-12-15T10:02:42.087Z,92347.78
2022-12-15T10:05:22.484Z,92360.03
2022-12-15T10:07:51.665Z,92400.78
2022-12-15T10:10:26.545Z,92333.53
2022-12-15T10:13:02.370Z,92335.56
2022-12-15T10:15:37.798Z,92339.66
2022-12-15T10:18:15.984Z,92388.53
2022-12-15T10:20:43.811Z,92333.53
2022-12-15T10:23:13.544Z,92264.25
2022-12-15T10:25:47.213Z,92362.06
2022-12-15T10:28:53.242Z,92355.94
2022-12-15T10:31:31.952Z,92333.53
2022-12-15T10:34:11.171Z,92341.69
2022-12-15T10:36:39.014Z,92368.16
2022-12-15T10:39:06.640Z,92339.66
2022-12-15T10:41:34.596Z,92282.59
2022-12-15T10:44:03.377Z,92296.84
2022-12-15T10:46:31.889Z,92290.75
2022-12-15T10:49:22.240Z,92280.56
2022-12-15T10:51:54.316Z,92309.06
2022-12-15T10:54:22.790Z,92298.88
2022-12-15T10:56:52.139Z,92317.22
2022-12-15T10:59:26.001Z,92317.22
2022-12-15T11:01:53.893Z,92282.59
2022-12-15T11:04:33.824Z,92294.81
2022-12-15T11:07:03.831Z,92290.75
2022-12-15T11:09:34.952Z,92305.00
2022-12-15T11:12:21.744Z,92465.97
2022-12-15T11:14:51.603Z,92245.91
2022-12-15T11:17:21.517Z,92294.81
2022-12-15T11:19:59.995Z,92282.59
2022-12-15T11:22:36.477Z,92221.47
2022-12-15T11:25:10.933Z,92264.25
2022-12-15T11:27:43.308Z,92272.41
2022-12-15T11:30:14.217Z,92192.94
2022-12-15T11:32:45.219Z,92250.00
2022-12-15T11:35:15.910Z,92221.47
2022-12-15T11:37:45.228Z,92333.53
2022-12-15T11:40:27.797Z,92235.72
2022-12-15T11:43:06.513Z,92278.50
2022-12-15T11:45:42.854Z,92215.34
2022-12-15T11:48:15.165Z,92231.66
2022-12-15T11:50:53.804Z,92178.66
2022-12-15T11:53:39.448Z,92235.72
2022-12-15T11:56:18.126Z,92233.69
2022-12-15T11:59:22.521Z,92225.53
2022-12-15T12:02:10.483Z,92127.72
2022-12-15T12:04:50.710Z,92217.38
2022-12-15T12:07:44.902Z,92176.63
2022-12-15T12:10:28.962Z,92201.09
2022-12-15T12:13:01.715Z,92217.38
2022-12-15T12:15:37.484Z,92162.38
2022-12-15T12:18:12.711Z,92211.28
2022-12-15T12:20:46.530Z,92164.41
2022-12-15T12:23:20.020Z,92197.00
2022-12-15T12:26:02.754Z,92168.47
2022-12-15T12:28:41.042Z,92205.16
2022-12-15T12:31:23.521Z,92137.91
2022-12-15T12:33:56.016Z,92137.91
2022-12-15T12:36:23.699Z,92074.75
2022-12-15T12:38:56.060Z,92125.69
2022-12-15T12:41:31.681Z,92133.84
2022-12-15T12:44:03.605Z,92119.59
2022-12-15T12:46:34.613Z,92101.25
2022-12-15T12:49:07.557Z,91993.25
2022-12-15T12:51:37.481Z,92091.06
2022-12-15T12:54:40.853Z,92135.88
2022-12-15T12:57:39.437Z,92111.44
2022-12-15T13:00:22.041Z,92042.16
2022-12-15T13:03:13.398Z,92125.69
2022-12-15T13:05:42.155Z,92117.53
2022-12-15T13:08:51.193Z,92107.38
2022-12-15T13:11:58.816Z,92135.88
2022-12-15T13:14:55.663Z,92205.16
2022-12-15T13:17:31.402Z,92270.38
2022-12-15T13:20:28.274Z,92229.59
2022-12-15T13:23:11.805Z,92241.84
2022-12-15T13:25:42.347Z,92223.50
2022-12-15T13:28:20.276Z,92211.28
2022-12-15T13:31:29.451Z,92205.16
2022-12-15T13:34:04.586Z,92211.28
2022-12-15T13:36:54.679Z,92543.41
2022-12-15T13:39:36.997Z,92247.94
2022-12-15T13:42:44.498Z,92268.31
2022-12-15T13:45:48.836Z,92186.81
2022-12-15T13:48:30.423Z,92262.22
2022-12-15T13:51:22.283Z,92211.28
2022-12-15T13:53:56.162Z,92258.13
2022-12-15T13:56:47.023Z,92245.91
2022-12-15T13:59:27.346Z,92247.94
2022-12-15T14:01:55.313Z,92201.09
2022-12-15T14:04:24.424Z,92213.31
2022-12-15T14:06:54.717Z,92225.53
2022-12-15T14:09:28.710Z,92221.47
2022-12-15T14:11:56.873Z,92229.59
2022-12-15T14:14:26.794Z,92188.88
2022-12-15T14:16:59.280Z,92254.06
2022-12-15T14:19:38.622Z,92274.44
2022-12-15T14:22:27.068Z,92260.19
2022-12-15T14:25:03.210Z,92219.44
2022-12-15T14:27:32.933Z,92262.22
2022-12-15T14:30:22.754Z,92282.59
2022-12-15T14:32:53.683Z,92209.25
2022-12-15T14:35:29.981Z,92284.63
2022-12-15T14:38:00.528Z,92252.03
2022-12-15T14:40:29.670Z,92290.75
2022-12-15T14:42:57.445Z,92233.69
2022-12-15T14:45:27.864Z,92278.50
2022-12-15T14:48:39.458Z,92264.25
2022-12-15T14:50:51.215Z,92217.38
2022-12-15T14:53:21.101Z,92311.13
2022-12-15T14:55:48.864Z,92282.59
2022-12-15T14:58:33.741Z,92298.88
2022-12-15T15:01:03.760Z,92307.03
2022-12-15T15:03:38.116Z,92252.03
2022-12-15T15:06:18.701Z,92298.88
2022-12-15T15:08:49.219Z,92337.59
2022-12-15T15:11:26.872Z,92300.94
2022-12-15T15:13:56.328Z,92260.19
2022-12-15T15:16:24.344Z,92319.25
2022-12-15T15:18:54.362Z,92309.06
2022-12-15T15:21:25.357Z,92335.56
2022-12-15T15:24:00.147Z,92313.16
2022-12-15T15:26:28.947Z,92353.91
2022-12-15T15:28:56.702Z,92270.38
2022-12-15T15:31:33.909Z,92355.94
2022-12-15T15:34:06.345Z,92315.19
2022-12-15T15:36:37.881Z,92302.97
2022-12-15T15:39:13.299Z,92329.44
2022-12-15T15:41:40.997Z,92335.56
2022-12-15T15:44:13.470Z,92317.22
2022-12-15T15:46:47.864Z,92357.97
2022-12-15T15:49:17.768Z,92355.94
2022-12-15T15:51:46.905Z,92313.16
2022-12-15T15:54:17.464Z,92370.19
2022-12-15T15:56:45.212Z,92410.97
2022-12-15T15:59:14.659Z,92345.75
2022-12-15T16:01:42.388Z,92392.63
2022-12-15T16:04:10.199Z,92372.25
2022-12-15T16:06:42.069Z,92386.50
2022-12-15T16:09:16.876Z,92408.91
2022-12-15T16:11:46.512Z,92353.91
2022-12-15T16:14:16.101Z,92351.88
2022-12-15T16:16:44.568Z,92410.97
2022-12-15T16:19:12.980Z,92402.81
2022-12-15T16:21:41.653Z,92629.00
2022-12-15T16:24:14.234Z,92390.59
2022-12-15T16:26:47.198Z,92404.84
2022-12-15T16:29:16.524Z,92417.06
2022-12-15T16:31:45.418Z,92449.69
2022-12-15T16:34:13.440Z,92419.09
2022-12-15T16:36:42.194Z,92360.03
2022-12-15T16:39:25.575Z,92457.81
2022-12-15T16:41:56.645Z,92406.88
2022-12-15T16:44:25.328Z,92427.25
2022-12-15T16:46:53.270Z,92437.44
2022-12-15T16:49:21.287Z,92423.19
2022-12-15T16:51:51.714Z,92417.06
2022-12-15T16:54:21.940Z,92421.16
2022-12-15T16:56:49.938Z,92276.47
2022-12-15T16:59:36.423Z,92419.09
2022-12-15T17:02:23.831Z,92437.44
2022-12-15T17:04:51.832Z,92437.44
2022-12-15T17:07:20.774Z,92429.28
2022-12-15T17:09:49.558Z,92400.78
2022-12-15T17:12:18.934Z,92451.72
2022-12-15T17:14:48.089Z,92396.69
2022-12-15T17:17:16.888Z,92429.28
2022-12-15T17:20:05.010Z,92453.75
2022-12-15T17:22:33.060Z,92453.75
2022-12-15T17:25:00.894Z,92470.06
2022-12-15T17:27:30.441Z,92439.47
2022-12-15T17:30:01.077Z,92551.56
2022-12-15T17:32:28.741Z,92394.66
2022-12-15T17:34:56.605Z,92457.81
2022-12-15T17:37:26.147Z,92376.31
2022-12-15T17:39:57.065Z,92465.97
2022-12-15T17:42:24.672Z,92468.00
2022-12-15T17:44:52.522Z,92476.16
2022-12-15T17:47:24.128Z,92451.72
2022-12-15T17:49:51.754Z,92447.63
2022-12-15T17:52:27.147Z,92445.59
2022-12-15T17:54:55.538Z,92468.00
2022-12-15T17:57:23.400Z,92478.19
2022-12-15T17:59:51.127Z,92437.44
2022-12-15T18:02:18.896Z,92472.09
2022-12-15T18:04:48.120Z,92486.34
2022-12-15T18:07:18.600Z,92468.00
2022-12-15T18:09:46.532Z,92463.94
2022-12-15T18:12:21.469Z,92425.22
2022-12-15T18:14:49.277Z,92425.22
2022-12-15T18:17:17.042Z,92484.31
2022-12-15T18:19:44.874Z,92455.78
2022-12-15T18:22:22.248Z,92461.91
2022-12-15T18:24:50.951Z,92463.94
2022-12-15T18:27:24.663Z,92400.78
2022-12-15T18:29:52.768Z,92468.00
2022-12-15T18:32:22.334Z,92492.47
2022-12-15T18:34:50.480Z,92453.75
2022-12-15T18:37:21.334Z,92474.13
2022-12-15T18:39:49.256Z,92478.19
2022-12-15T18:42:19.146Z,92461.91
2022-12-15T18:44:48.940Z,92482.28
2022-12-15T18:47:18.746Z,92445.59
2022-12-15T18:49:46.839Z,92441.53
2022-12-15T18:52:18.490Z,92472.09
2022-12-15T18:54:47.922Z,92286.66
2022-12-15T18:57:28.641Z,92490.44
2022-12-15T18:59:59.358Z,92400.78
2022-12-15T19:02:27.109Z,92468.00
2022-12-15T19:04:54.979Z,92470.06
2022-12-15T19:07:22.654Z,92461.91
2022-12-15T19:09:51.960Z,92482.28
2022-12-15T19:12:19.852Z,92465.97
2022-12-15T19:14:48.964Z,92516.91
2022-12-15T19:17:36.400Z,92474.13
2022-12-15T19:20:24.236Z,92461.91
2022-12-15T19:22:53.324Z,92461.91
2022-12-15T19:25:26.772Z,92435.41
2022-12-15T19:27:58.939Z,92474.13
2022-12-15T19:30:28.785Z,92470.06
2022-12-15T19:32:56.639Z,92498.56
2022-12-15T19:35:25.000Z,92470.06
2022-12-15T19:37:55.042Z,92496.53
2022-12-15T19:40:28.358Z,92514.88
2022-12-15T19:42:56.239Z,92472.09
2022-12-15T19:45:26.085Z,92490.44
2022-12-15T19:47:54.097Z,92533.22
2022-12-15T19:50:24.421Z,92472.09
2022-12-15T19:52:56.251Z,92470.06
2022-12-15T19:55:28.748Z,92496.53
2022-12-15T19:57:56.470Z,92488.38
2022-12-15T20:00:25.168Z,92453.75
2022-12-15T20:02:54.693Z,92502.66
2022-12-15T20:05:23.320Z,92421.16
2022-12-15T20:07:52.820Z,92494.50
2022-12-15T20:10:29.389Z,92463.94
2022-12-15T20:13:03.189Z,92474.13
2022-12-15T20:15:30.926Z,92474.13
2022-12-15T20:17:58.546Z,92482.28
2022-12-15T20:20:29.822Z,92492.47
2022-12-15T20:23:00.728Z,92449.69
2022-12-15T20:25:30.619Z,92478.19
2022-12-15T20:28:00.200Z,92504.69
2022-12-15T20:30:32.451Z,92521.00
2022-12-15T20:33:00.721Z,92478.19
2022-12-15T20:35:28.756Z,92490.44
2022-12-15T20:37:56.896Z,92488.38
2022-12-15T20:40:27.295Z,92514.88
2022-12-15T20:42:55.732Z,92494.50
2022-12-15T20:45:25.442Z,92380.38
2022-12-15T20:47:56.768Z,92455.78
2022-12-15T20:50:27.858Z,92510.81
2022-12-15T20:52:55.752Z,92484.31
2022-12-15T20:55:23.554Z,92463.94
2022-12-15T20:57:51.328Z,92463.94
2022-12-15T21:00:23.680Z,92502.66
2022-12-15T21:02:52.056Z,92443.56
2022-12-15T21:05:24.185Z,92518.94
2022-12-15T21:07:52.861Z,92474.13
2022-12-15T21:10:21.814Z,92417.06
2022-12-15T21:12:50.761Z,92461.91
2022-12-15T21:15:20.573Z,92484.31
2022-12-15T21:17:58.024Z,92474.13
2022-12-15T21:20:33.266Z,92478.19
2022-12-15T21:23:01.414Z,92516.91
2022-12-15T21:25:29.096Z,92480.25
2022-12-15T21:27:56.683Z,92433.38
2022-12-15T21:30:25.817Z,92482.28
2022-12-15T21:32:53.522Z,92431.34
2022-12-15T21:35:21.199Z,92498.56
2022-12-15T21:37:51.716Z,92496.53
2022-12-15T21:40:21.161Z,92488.38
2022-12-15T21:42:49.974Z,92486.34
2022-12-15T21:45:20.737Z,92490.44
2022-12-15T21:48:07.178Z,92525.06
2022-12-15T21:50:35.396Z,92500.63
2022-12-15T21:53:06.197Z,92498.56
2022-12-15T21:55:34.023Z,92502.66
2022-12-15T21:58:01.662Z,92502.66
2022-12-15T22:00:29.486Z,92482.28
2022-12-15T22:02:57.153Z,92388.53
2022-12-15T22:05:29.237Z,92441.53
2022-12-15T22:07:58.470Z,92470.06
2022-12-15T22:10:27.743Z,92425.22
2022-12-15T22:12:59.553Z,92492.47
2022-12-15T22:15:29.617Z,92506.72
2022-12-15T22:17:57.364Z,92514.88
2022-12-15T22:20:25.945Z,92510.81
2022-12-15T22:22:53.645Z,92514.88
2022-12-15T22:25:25.488Z,92498.56
2022-12-15T22:27:54.766Z,92535.25
2022-12-15T22:30:26.195Z,92527.09
2022-12-15T22:32:54.017Z,92502.66
2022-12-15T22:35:23.336Z,92502.66
2022-12-15T22:37:53.587Z,92445.59
2022-12-15T22:40:22.554Z,92482.28
2022-12-15T22:42:55.011Z,92506.72
2022-12-15T22:45:24.982Z,92413.00
2022-12-15T22:47:54.989Z,92504.69
2022-12-15T22:50:24.809Z,92506.72
2022-12-15T22:55:42.314Z,92425.22
2022-12-15T22:58:13.267Z,92488.38
2022-12-15T23:00:42.289Z,92457.81
2022-12-15T23:03:12.177Z,92453.75
2022-12-15T23:05:42.566Z,92388.53
2022-12-15T23:08:10.395Z,92470.06
2022-12-15T23:10:55.540Z,92490.44
2022-12-15T23:13:23.169Z,92510.81
2022-12-15T23:16:10.134Z,92502.66
2022-12-15T23:18:37.914Z,92559.72
2022-12-15T23:21:05.951Z,92488.38
2022-12-15T23:23:34.129Z,92514.88
2022-12-15T23:26:02.252Z,92494.50
2022-12-15T23:28:30.131Z,92498.56
2022-12-15T23:30:59.222Z,92494.50
2022-12-15T23:33:28.453Z,92523.03
2022-12-15T23:35:57.754Z,92494.50
2022-12-15T23:38:26.556Z,92512.84
2022-12-15T23:40:56.590Z,92472.09
2022-12-15T23:43:25.727Z,92527.09
2022-12-15T23:45:59.714Z,92472.09
2022-12-15T23:48:32.530Z,92443.56
2022-12-15T23:51:05.422Z,92445.59
2022-12-15T23:53:33.970Z,92335.56
2022-12-15T23:56:07.118Z,92478.19
2022-12-15T23:58:35.807Z,92441.53
